sensor_id;sensor_type;location;lat;lon;timestamp;pressure;altitude;pressure_sealevel;temperature;humidity
56928;BME280;60850;52.502;13.426;2022-08-19T00:01:20;100531.06;;;21.75;100.00
56928;BME280;60850;52.502;13.426;2022-08-19T00:03:47;100537.34;;;21.75;100.00
56928;BME280;60850;52.502;13.426;2022-08-19T00:06:15;100545.63;;;21.74;100.00
56928;BME280;60850;52.502;13.426;2022-08-19T00:08:42;100542.03;;;21.73;100.00
56928;BME280;60850;52.502;13.426;2022-08-19T00:11:10;100544.50;;;21.76;100.00
56928;BME280;60850;52.502;13.426;2022-08-19T00:13:38;100550.78;;;21.77;100.00
56928;BME280;60850;52.502;13.426;2022-08-19T00:16:07;100555.16;;;21.79;100.00
56928;BME280;60850;52.502;13.426;2022-08-19T00:18:34;100563.16;;;21.81;100.00
56928;BME280;60850;52.502;13.426;2022-08-19T00:21:01;100565.00;;;21.80;100.00
56928;BME280;60850;52.502;13.426;2022-08-19T00:23:28;100556.13;;;21.78;100.00
56928;BME280;60850;52.502;13.426;2022-08-19T00:25:56;100547.59;;;21.72;100.00
56928;BME280;60850;52.502;13.426;2022-08-19T00:28:22;100542.50;;;21.67;100.00
56928;BME280;60850;52.502;13.426;2022-08-19T00:30:49;100551.25;;;21.71;100.00
56928;BME280;60850;52.502;13.426;2022-08-19T00:33:18;100554.09;;;21.69;100.00
56928;BME280;60850;52.502;13.426;2022-08-19T00:35:45;100544.47;;;21.65;100.00
56928;BME280;60850;52.502;13.426;2022-08-19T00:38:12;100546.94;;;21.68;100.00
56928;BME280;60850;52.502;13.426;2022-08-19T00:40:42;100529.56;;;21.71;100.00
56928;BME280;60850;52.502;13.426;2022-08-19T00:43:10;100534.97;;;21.71;100.00
56928;BME280;60850;52.502;13.426;2022-08-19T00:45:39;100535.88;;;21.71;100.00
56928;BME280;60850;52.502;13.426;2022-08-19T00:48:07;100536.63;;;21.73;100.00
56928;BME280;60850;52.502;13.426;2022-08-19T00:50:36;100529.56;;;21.71;100.00
56928;BME280;60850;52.502;13.426;2022-08-19T00:53:06;100529.81;;;21.67;100.00
56928;BME280;60850;52.502;13.426;2022-08-19T00:55:33;100522.53;;;21.68;100.00
56928;BME280;60850;52.502;13.426;2022-08-19T00:58:04;100526.56;;;21.62;100.00
56928;BME280;60850;52.502;13.426;2022-08-19T01:00:33;100527.78;;;21.58;100.00
56928;BME280;60850;52.502;13.426;2022-08-19T01:03:02;100533.34;;;21.57;100.00
56928;BME280;60850;52.502;13.426;2022-08-19T01:05:29;100538.97;;;21.54;100.00
56928;BME280;60850;52.502;13.426;2022-08-19T01:08:01;100541.94;;;21.51;100.00
56928;BME280;60850;52.502;13.426;2022-08-19T01:10:32;100549.44;;;21.47;100.00
56928;BME280;60850;52.502;13.426;2022-08-19T01:13:01;100549.00;;;21.41;100.00
56928;BME280;60850;52.502;13.426;2022-08-19T01:15:31;100555.75;;;21.35;100.00
56928;BME280;60850;52.502;13.426;2022-08-19T01:18:00;100552.53;;;21.30;100.00
56928;BME280;60850;52.502;13.426;2022-08-19T01:20:28;100566.09;;;21.30;100.00
56928;BME280;60850;52.502;13.426;2022-08-19T01:22:57;100560.97;;;21.25;100.00
56928;BME280;60850;52.502;13.426;2022-08-19T01:25:29;100559.91;;;21.28;100.00
56928;BME280;60850;52.502;13.426;2022-08-19T01:27:57;100567.94;;;21.29;100.00
56928;BME280;60850;52.502;13.426;2022-08-19T01:30:26;100560.34;;;21.22;100.00
56928;BME280;60850;52.502;13.426;2022-08-19T01:32:54;100567.50;;;21.23;100.00
56928;BME280;60850;52.502;13.426;2022-08-19T01:35:23;100568.25;;;21.25;100.00
56928;BME280;60850;52.502;13.426;2022-08-19T01:37:52;100568.13;;;21.26;100.00
56928;BME280;60850;52.502;13.426;2022-08-19T01:40:21;100562.09;;;21.23;100.00
56928;BME280;60850;52.502;13.426;2022-08-19T01:42:49;100564.88;;;21.21;100.00
56928;BME280;60850;52.502;13.426;2022-08-19T01:45:18;100563.16;;;21.20;100.00
56928;BME280;60850;52.502;13.426;2022-08-19T01:47:47;100559.69;;;21.18;100.00
56928;BME280;60850;52.502;13.426;2022-08-19T01:50:14;100570.38;;;20.96;100.00
56928;BME280;60850;52.502;13.426;2022-08-19T01:52:42;100564.09;;;20.82;100.00
56928;BME280;60850;52.502;13.426;2022-08-19T01:55:14;100557.50;;;20.87;100.00
56928;BME280;60850;52.502;13.426;2022-08-19T01:57:46;100566.81;;;20.82;100.00
56928;BME280;60850;52.502;13.426;2022-08-19T02:00:17;100561.94;;;20.88;100.00
56928;BME280;60850;52.502;13.426;2022-08-19T02:02:44;100553.81;;;20.88;100.00
56928;BME280;60850;52.502;13.426;2022-08-19T02:05:12;100538.84;;;20.95;100.00
56928;BME280;60850;52.502;13.426;2022-08-19T02:07:40;100526.69;;;21.00;100.00
56928;BME280;60850;52.502;13.426;2022-08-19T02:10:11;100523.75;;;21.03;100.00
56928;BME280;60850;52.502;13.426;2022-08-19T02:12:38;100527.31;;;21.04;100.00
56928;BME280;60850;52.502;13.426;2022-08-19T02:15:08;100506.72;;;21.01;100.00
56928;BME280;60850;52.502;13.426;2022-08-19T02:17:35;100466.16;;;21.00;100.00
56928;BME280;60850;52.502;13.426;2022-08-19T02:20:03;100456.66;;;20.94;100.00
56928;BME280;60850;52.502;13.426;2022-08-19T02:22:31;100462.31;;;20.91;100.00
56928;BME280;60850;52.502;13.426;2022-08-19T02:24:58;100456.13;;;20.89;100.00
56928;BME280;60850;52.502;13.426;2022-08-19T02:27:25;100457.88;;;20.90;100.00
56928;BME280;60850;52.502;13.426;2022-08-19T02:29:52;100462.75;;;20.85;100.00
56928;BME280;60850;52.502;13.426;2022-08-19T02:32:20;100453.53;;;20.88;100.00
56928;BME280;60850;52.502;13.426;2022-08-19T02:34:47;100451.16;;;20.83;100.00
56928;BME280;60850;52.502;13.426;2022-08-19T02:37:14;100460.59;;;20.77;100.00
56928;BME280;60850;52.502;13.426;2022-08-19T02:39:55;100465.03;;;20.78;100.00
56928;BME280;60850;52.502;13.426;2022-08-19T02:42:22;100465.69;;;20.82;100.00
56928;BME280;60850;52.502;13.426;2022-08-19T02:44:49;100462.13;;;20.81;100.00
56928;BME280;60850;52.502;13.426;2022-08-19T02:47:17;100461.25;;;20.81;100.00
56928;BME280;60850;52.502;13.426;2022-08-19T02:49:45;100468.28;;;20.83;100.00
56928;BME280;60850;52.502;13.426;2022-08-19T02:52:14;100477.63;;;20.79;100.00
56928;BME280;60850;52.502;13.426;2022-08-19T02:54:41;100474.56;;;20.84;100.00
56928;BME280;60850;52.502;13.426;2022-08-19T02:57:08;100476.22;;;20.87;100.00
56928;BME280;60850;52.502;13.426;2022-08-19T02:59:35;100477.94;;;20.88;100.00
56928;BME280;60850;52.502;13.426;2022-08-19T03:02:05;100480.09;;;20.82;100.00
56928;BME280;60850;52.502;13.426;2022-08-19T03:04:32;100479.13;;;20.83;100.00
56928;BME280;60850;52.502;13.426;2022-08-19T03:07:00;100488.34;;;20.81;100.00
56928;BME280;60850;52.502;13.426;2022-08-19T03:09:27;100481.22;;;20.80;100.00
56928;BME280;60850;52.502;13.426;2022-08-19T03:11:56;100484.66;;;20.82;100.00
56928;BME280;60850;52.502;13.426;2022-08-19T03:14:22;100484.38;;;20.74;100.00
56928;BME280;60850;52.502;13.426;2022-08-19T03:16:51;100472.25;;;20.67;100.00
56928;BME280;60850;52.502;13.426;2022-08-19T03:19:20;100466.94;;;20.65;100.00
56928;BME280;60850;52.502;13.426;2022-08-19T03:21:47;100470.59;;;20.64;100.00
56928;BME280;60850;52.502;13.426;2022-08-19T03:24:16;100459.25;;;20.59;100.00
56928;BME280;60850;52.502;13.426;2022-08-19T03:26:46;100448.63;;;20.56;100.00
56928;BME280;60850;52.502;13.426;2022-08-19T03:29:13;100456.56;;;20.46;100.00
56928;BME280;60850;52.502;13.426;2022-08-19T03:31:42;100460.25;;;20.45;100.00
56928;BME280;60850;52.502;13.426;2022-08-19T03:34:10;100465.31;;;20.50;100.00
56928;BME280;60850;52.502;13.426;2022-08-19T03:36:38;100465.13;;;20.53;100.00
56928;BME280;60850;52.502;13.426;2022-08-19T03:39:05;100457.63;;;20.56;100.00
56928;BME280;60850;52.502;13.426;2022-08-19T03:41:39;100457.53;;;20.58;100.00
56928;BME280;60850;52.502;13.426;2022-08-19T03:44:07;100452.97;;;20.59;100.00
56928;BME280;60850;52.502;13.426;2022-08-19T03:46:34;100457.13;;;20.51;100.00
56928;BME280;60850;52.502;13.426;2022-08-19T03:49:03;100453.63;;;20.49;100.00
56928;BME280;60850;52.502;13.426;2022-08-19T03:51:35;100463.59;;;20.49;100.00
56928;BME280;60850;52.502;13.426;2022-08-19T03:54:05;100464.22;;;20.40;100.00
56928;BME280;60850;52.502;13.426;2022-08-19T03:56:34;100459.78;;;20.39;100.00
56928;BME280;60850;52.502;13.426;2022-08-19T03:59:03;100464.84;;;20.43;100.00
56928;BME280;60850;52.502;13.426;2022-08-19T04:01:30;100458.94;;;20.38;100.00
56928;BME280;60850;52.502;13.426;2022-08-19T04:03:58;100458.53;;;20.44;100.00
56928;BME280;60850;52.502;13.426;2022-08-19T04:06:27;100446.03;;;20.42;100.00
56928;BME280;60850;52.502;13.426;2022-08-19T04:08:56;100467.81;;;20.40;100.00
56928;BME280;60850;52.502;13.426;2022-08-19T04:11:25;100456.84;;;20.42;100.00
56928;BME280;60850;52.502;13.426;2022-08-19T04:13:54;100467.28;;;20.48;100.00
56928;BME280;60850;52.502;13.426;2022-08-19T04:16:26;100471.09;;;20.45;100.00
56928;BME280;60850;52.502;13.426;2022-08-19T04:18:54;100481.22;;;20.42;100.00
56928;BME280;60850;52.502;13.426;2022-08-19T04:21:24;100476.50;;;20.45;100.00
56928;BME280;60850;52.502;13.426;2022-08-19T04:23:51;100480.81;;;20.48;100.00
56928;BME280;60850;52.502;13.426;2022-08-19T04:26:21;100480.63;;;20.51;100.00
56928;BME280;60850;52.502;13.426;2022-08-19T04:28:49;100492.19;;;20.53;100.00
56928;BME280;60850;52.502;13.426;2022-08-19T04:31:19;100488.28;;;20.57;100.00
56928;BME280;60850;52.502;13.426;2022-08-19T04:33:48;100488.06;;;20.60;100.00
56928;BME280;60850;52.502;13.426;2022-08-19T04:36:17;100467.69;;;20.67;100.00
56928;BME280;60850;52.502;13.426;2022-08-19T04:38:46;100468.97;;;20.74;100.00
56928;BME280;60850;52.502;13.426;2022-08-19T04:41:13;100481.53;;;20.75;100.00
56928;BME280;60850;52.502;13.426;2022-08-19T04:43:57;100479.56;;;20.77;100.00
56928;BME280;60850;52.502;13.426;2022-08-19T04:46:24;100475.88;;;20.78;100.00
56928;BME280;60850;52.502;13.426;2022-08-19T04:48:53;100476.09;;;20.88;100.00
56928;BME280;60850;52.502;13.426;2022-08-19T04:51:22;100464.34;;;21.00;100.00
56928;BME280;60850;52.502;13.426;2022-08-19T04:53:49;100474.13;;;21.14;100.00
56928;BME280;60850;52.502;13.426;2022-08-19T04:56:18;100478.25;;;21.20;100.00
56928;BME280;60850;52.502;13.426;2022-08-19T04:58:49;100473.13;;;21.28;100.00
56928;BME280;60850;52.502;13.426;2022-08-19T05:01:19;100466.56;;;21.43;100.00
56928;BME280;60850;52.502;13.426;2022-08-19T05:03:46;100459.13;;;21.58;100.00
56928;BME280;60850;52.502;13.426;2022-08-19T05:06:17;100461.63;;;21.72;100.00
56928;BME280;60850;52.502;13.426;2022-08-19T05:08:45;100448.78;;;21.74;100.00
56928;BME280;60850;52.502;13.426;2022-08-19T05:13:40;100448.31;;;22.38;100.00
56928;BME280;60850;52.502;13.426;2022-08-19T05:16:07;100437.31;;;22.51;100.00
56928;BME280;60850;52.502;13.426;2022-08-19T05:18:34;100439.13;;;22.61;100.00
56928;BME280;60850;52.502;13.426;2022-08-19T05:21:20;100424.69;;;22.72;100.00
56928;BME280;60850;52.502;13.426;2022-08-19T05:24:06;100434.34;;;22.65;100.00
56928;BME280;60850;52.502;13.426;2022-08-19T05:26:34;100431.84;;;22.62;100.00
56928;BME280;60850;52.502;13.426;2022-08-19T05:29:02;100417.03;;;22.66;100.00
56928;BME280;60850;52.502;13.426;2022-08-19T05:31:29;100423.81;;;22.71;100.00
56928;BME280;60850;52.502;13.426;2022-08-19T05:33:56;100418.75;;;22.67;100.00
56928;BME280;60850;52.502;13.426;2022-08-19T05:36:26;100419.13;;;22.73;100.00
56928;BME280;60850;52.502;13.426;2022-08-19T05:38:54;100420.34;;;22.81;100.00
56928;BME280;60850;52.502;13.426;2022-08-19T05:41:22;100414.63;;;23.38;100.00
56928;BME280;60850;52.502;13.426;2022-08-19T05:43:56;100414.16;;;24.17;100.00
56928;BME280;60850;52.502;13.426;2022-08-19T05:46:23;100420.59;;;23.85;100.00
56928;BME280;60850;52.502;13.426;2022-08-19T05:48:50;100436.25;;;23.72;100.00
56928;BME280;60850;52.502;13.426;2022-08-19T05:51:17;100425.13;;;23.43;100.00
56928;BME280;60850;52.502;13.426;2022-08-19T05:53:45;100428.72;;;23.32;100.00
56928;BME280;60850;52.502;13.426;2022-08-19T05:56:14;100426.94;;;23.21;100.00
56928;BME280;60850;52.502;13.426;2022-08-19T05:58:42;100427.81;;;23.22;100.00
56928;BME280;60850;52.502;13.426;2022-08-19T06:01:12;100426.13;;;23.42;100.00
56928;BME280;60850;52.502;13.426;2022-08-19T06:03:40;100437.69;;;23.23;100.00
56928;BME280;60850;52.502;13.426;2022-08-19T06:06:08;100440.72;;;22.97;100.00
56928;BME280;60850;52.502;13.426;2022-08-19T06:08:36;100438.13;;;22.96;100.00
56928;BME280;60850;52.502;13.426;2022-08-19T06:11:16;100440.00;;;22.84;100.00
56928;BME280;60850;52.502;13.426;2022-08-19T06:13:44;100455.94;;;22.78;100.00
56928;BME280;60850;52.502;13.426;2022-08-19T06:16:16;100458.03;;;22.74;100.00
56928;BME280;60850;52.502;13.426;2022-08-19T06:18:48;100443.47;;;22.86;100.00
56928;BME280;60850;52.502;13.426;2022-08-19T06:21:17;100447.66;;;22.90;100.00
56928;BME280;60850;52.502;13.426;2022-08-19T06:23:45;100439.97;;;22.95;100.00
56928;BME280;60850;52.502;13.426;2022-08-19T06:26:13;100448.47;;;23.13;100.00
56928;BME280;60850;52.502;13.426;2022-08-19T06:28:42;100447.41;;;23.05;100.00
56928;BME280;60850;52.502;13.426;2022-08-19T06:31:12;100449.03;;;23.28;100.00
56928;BME280;60850;52.502;13.426;2022-08-19T06:33:40;100444.09;;;23.33;100.00
56928;BME280;60850;52.502;13.426;2022-08-19T06:36:15;100443.44;;;23.41;100.00
56928;BME280;60850;52.502;13.426;2022-08-19T06:38:42;100440.78;;;23.62;100.00
56928;BME280;60850;52.502;13.426;2022-08-19T06:41:09;100431.66;;;23.72;100.00
56928;BME280;60850;52.502;13.426;2022-08-19T06:43:36;100444.69;;;23.90;100.00
56928;BME280;60850;52.502;13.426;2022-08-19T06:46:10;100452.97;;;23.88;100.00
56928;BME280;60850;52.502;13.426;2022-08-19T06:48:37;100468.19;;;23.70;100.00
56928;BME280;60850;52.502;13.426;2022-08-19T06:51:04;100475.03;;;23.53;100.00
56928;BME280;60850;52.502;13.426;2022-08-19T06:53:32;100472.44;;;23.51;100.00
56928;BME280;60850;52.502;13.426;2022-08-19T06:55:59;100471.69;;;23.61;100.00
56928;BME280;60850;52.502;13.426;2022-08-19T06:58:28;100478.88;;;23.62;100.00
56928;BME280;60850;52.502;13.426;2022-08-19T07:00:59;100478.59;;;23.65;100.00
56928;BME280;60850;52.502;13.426;2022-08-19T07:03:29;100486.25;;;23.60;100.00
56928;BME280;60850;52.502;13.426;2022-08-19T07:05:58;100485.03;;;23.64;100.00
56928;BME280;60850;52.502;13.426;2022-08-19T07:08:28;100498.91;;;23.61;100.00
56928;BME280;60850;52.502;13.426;2022-08-19T07:10:56;100507.44;;;23.56;100.00
56928;BME280;60850;52.502;13.426;2022-08-19T07:13:23;100499.28;;;23.56;100.00
56928;BME280;60850;52.502;13.426;2022-08-19T07:15:50;100484.47;;;23.49;100.00
56928;BME280;60850;52.502;13.426;2022-08-19T07:18:18;100474.06;;;23.54;100.00
56928;BME280;60850;52.502;13.426;2022-08-19T07:20:47;100465.91;;;23.75;100.00
56928;BME280;60850;52.502;13.426;2022-08-19T07:23:14;100476.91;;;23.84;100.00
56928;BME280;60850;52.502;13.426;2022-08-19T07:25:41;100478.47;;;23.66;100.00
56928;BME280;60850;52.502;13.426;2022-08-19T07:28:08;100483.53;;;23.60;100.00
56928;BME280;60850;52.502;13.426;2022-08-19T07:30:37;100485.63;;;23.67;100.00
56928;BME280;60850;52.502;13.426;2022-08-19T07:33:06;100494.78;;;23.66;100.00
56928;BME280;60850;52.502;13.426;2022-08-19T07:35:33;100500.38;;;23.53;100.00
56928;BME280;60850;52.502;13.426;2022-08-19T07:38:01;100499.50;;;23.64;100.00
56928;BME280;60850;52.502;13.426;2022-08-19T07:40:31;100503.31;;;23.73;100.00
56928;BME280;60850;52.502;13.426;2022-08-19T07:42:59;100515.41;;;23.80;100.00
56928;BME280;60850;52.502;13.426;2022-08-19T07:45:26;100506.72;;;23.86;100.00
56928;BME280;60850;52.502;13.426;2022-08-19T07:47:54;100508.03;;;23.92;100.00
56928;BME280;60850;52.502;13.426;2022-08-19T07:50:21;100514.06;;;23.95;100.00
56928;BME280;60850;52.502;13.426;2022-08-19T07:52:49;100513.00;;;23.87;100.00
56928;BME280;60850;52.502;13.426;2022-08-19T07:55:21;100512.88;;;23.88;100.00
56928;BME280;60850;52.502;13.426;2022-08-19T07:57:49;100515.81;;;23.75;100.00
56928;BME280;60850;52.502;13.426;2022-08-19T08:00:17;100519.75;;;23.82;100.00
56928;BME280;60850;52.502;13.426;2022-08-19T08:02:44;100526.75;;;23.85;100.00
56928;BME280;60850;52.502;13.426;2022-08-19T08:05:11;100516.88;;;23.84;100.00
56928;BME280;60850;52.502;13.426;2022-08-19T08:07:56;100522.66;;;23.91;100.00
56928;BME280;60850;52.502;13.426;2022-08-19T08:10:42;100529.09;;;23.90;100.00
56928;BME280;60850;52.502;13.426;2022-08-19T08:13:09;100531.69;;;23.91;100.00
56928;BME280;60850;52.502;13.426;2022-08-19T08:15:36;100540.19;;;23.98;100.00
56928;BME280;60850;52.502;13.426;2022-08-19T08:18:04;100552.22;;;24.16;100.00
56928;BME280;60850;52.502;13.426;2022-08-19T08:20:31;100551.88;;;24.30;100.00
56928;BME280;60850;52.502;13.426;2022-08-19T08:22:58;100547.94;;;24.34;100.00
56928;BME280;60850;52.502;13.426;2022-08-19T08:25:44;100552.72;;;24.42;100.00
56928;BME280;60850;52.502;13.426;2022-08-19T08:28:11;100548.28;;;24.41;100.00
56928;BME280;60850;52.502;13.426;2022-08-19T08:30:37;100556.44;;;24.41;100.00
56928;BME280;60850;52.502;13.426;2022-08-19T08:33:07;100551.66;;;24.54;100.00
56928;BME280;60850;52.502;13.426;2022-08-19T08:35:34;100549.91;;;24.84;100.00
56928;BME280;60850;52.502;13.426;2022-08-19T08:38:02;100542.56;;;25.05;100.00
56928;BME280;60850;52.502;13.426;2022-08-19T08:40:37;100548.41;;;25.41;100.00
56928;BME280;60850;52.502;13.426;2022-08-19T08:43:11;100549.94;;;25.74;100.00
56928;BME280;60850;52.502;13.426;2022-08-19T08:45:44;100546.88;;;26.06;100.00
56928;BME280;60850;52.502;13.426;2022-08-19T08:48:19;100546.16;;;26.23;100.00
56928;BME280;60850;52.502;13.426;2022-08-19T08:50:49;100552.63;;;26.32;100.00
56928;BME280;60850;52.502;13.426;2022-08-19T08:53:18;100550.91;;;26.41;100.00
56928;BME280;60850;52.502;13.426;2022-08-19T08:55:46;100550.31;;;26.27;100.00
56928;BME280;60850;52.502;13.426;2022-08-19T08:58:24;100549.63;;;26.16;100.00
56928;BME280;60850;52.502;13.426;2022-08-19T09:00:52;100551.19;;;25.99;100.00
56928;BME280;60850;52.502;13.426;2022-08-19T09:03:20;100556.84;;;25.88;100.00
56928;BME280;60850;52.502;13.426;2022-08-19T09:05:56;100554.53;;;25.73;100.00
56928;BME280;60850;52.502;13.426;2022-08-19T09:08:33;100570.00;;;25.63;100.00
56928;BME280;60850;52.502;13.426;2022-08-19T09:11:06;100563.66;;;25.63;100.00
56928;BME280;60850;52.502;13.426;2022-08-19T09:13:42;100563.00;;;25.80;100.00
56928;BME280;60850;52.502;13.426;2022-08-19T09:16:13;100563.59;;;26.03;100.00
56928;BME280;60850;52.502;13.426;2022-08-19T09:18:43;100546.88;;;26.25;100.00
56928;BME280;60850;52.502;13.426;2022-08-19T09:21:11;100551.00;;;26.59;100.00
56928;BME280;60850;52.502;13.426;2022-08-19T09:23:39;100548.72;;;26.91;100.00
56928;BME280;60850;52.502;13.426;2022-08-19T09:26:08;100532.28;;;27.28;100.00
56928;BME280;60850;52.502;13.426;2022-08-19T09:28:36;100534.75;;;28.21;100.00
56928;BME280;60850;52.502;13.426;2022-08-19T09:31:03;100528.69;;;29.29;100.00
56928;BME280;60850;52.502;13.426;2022-08-19T09:33:30;100541.38;;;29.72;100.00
56928;BME280;60850;52.502;13.426;2022-08-19T09:36:04;100538.84;;;29.37;100.00
56928;BME280;60850;52.502;13.426;2022-08-19T09:38:32;100542.56;;;28.85;100.00
56928;BME280;60850;52.502;13.426;2022-08-19T09:41:02;100540.09;;;28.74;100.00
56928;BME280;60850;52.502;13.426;2022-08-19T09:43:30;100536.84;;;28.70;100.00
56928;BME280;60850;52.502;13.426;2022-08-19T09:45:59;100532.88;;;28.73;100.00
56928;BME280;60850;52.502;13.426;2022-08-19T09:48:26;100534.59;;;28.74;100.00
56928;BME280;60850;52.502;13.426;2022-08-19T09:50:53;100533.22;;;28.70;100.00
56928;BME280;60850;52.502;13.426;2022-08-19T09:53:20;100527.31;;;28.57;100.00
56928;BME280;60850;52.502;13.426;2022-08-19T09:55:48;100538.97;;;28.33;100.00
56928;BME280;60850;52.502;13.426;2022-08-19T09:58:16;100537.03;;;28.07;100.00
56928;BME280;60850;52.502;13.426;2022-08-19T10:00:43;100534.22;;;27.81;100.00
56928;BME280;60850;52.502;13.426;2022-08-19T10:03:12;100536.19;;;27.71;100.00
56928;BME280;60850;52.502;13.426;2022-08-19T10:05:39;100536.38;;;27.60;100.00
56928;BME280;60850;52.502;13.426;2022-08-19T10:08:18;100534.28;;;27.54;100.00
56928;BME280;60850;52.502;13.426;2022-08-19T10:10:45;100534.44;;;27.52;100.00
56928;BME280;60850;52.502;13.426;2022-08-19T10:13:15;100533.94;;;27.39;100.00
56928;BME280;60850;52.502;13.426;2022-08-19T10:15:43;100538.97;;;27.16;100.00
56928;BME280;60850;52.502;13.426;2022-08-19T10:18:11;100531.28;;;26.92;100.00
56928;BME280;60850;52.502;13.426;2022-08-19T10:20:38;100537.13;;;26.79;100.00
56928;BME280;60850;52.502;13.426;2022-08-19T10:23:07;100529.09;;;26.68;100.00
56928;BME280;60850;52.502;13.426;2022-08-19T10:25:34;100526.84;;;26.35;100.00
56928;BME280;60850;52.502;13.426;2022-08-19T10:28:01;100534.41;;;25.94;100.00
56928;BME280;60850;52.502;13.426;2022-08-19T10:30:28;100528.16;;;25.63;100.00
56928;BME280;60850;52.502;13.426;2022-08-19T10:32:55;100517.41;;;25.52;100.00
56928;BME280;60850;52.502;13.426;2022-08-19T10:35:23;100517.97;;;25.45;100.00
56928;BME280;60850;52.502;13.426;2022-08-19T10:37:52;100510.59;;;25.36;100.00
56928;BME280;60850;52.502;13.426;2022-08-19T10:40:19;100516.22;;;25.35;100.00
56928;BME280;60850;52.502;13.426;2022-08-19T10:42:46;100515.22;;;25.36;100.00
56928;BME280;60850;52.502;13.426;2022-08-19T10:45:13;100523.28;;;25.37;100.00
56928;BME280;60850;52.502;13.426;2022-08-19T10:47:40;100520.41;;;25.39;100.00
56928;BME280;60850;52.502;13.426;2022-08-19T10:50:07;100522.13;;;25.40;100.00
56928;BME280;60850;52.502;13.426;2022-08-19T10:52:53;100524.53;;;25.24;100.00
56928;BME280;60850;52.502;13.426;2022-08-19T10:55:22;100521.91;;;25.12;100.00
56928;BME280;60850;52.502;13.426;2022-08-19T10:58:11;100528.19;;;25.03;100.00
56928;BME280;60850;52.502;13.426;2022-08-19T11:00:38;100528.06;;;25.05;100.00
56928;BME280;60850;52.502;13.426;2022-08-19T11:03:06;100523.19;;;25.08;100.00
56928;BME280;60850;52.502;13.426;2022-08-19T11:05:33;100539.91;;;25.25;100.00
56928;BME280;60850;52.502;13.426;2022-08-19T11:08:02;100532.44;;;25.36;100.00
56928;BME280;60850;52.502;13.426;2022-08-19T11:10:29;100548.84;;;25.46;100.00
56928;BME280;60850;52.502;13.426;2022-08-19T11:12:58;100542.53;;;25.55;100.00
56928;BME280;60850;52.502;13.426;2022-08-19T11:15:26;100541.41;;;25.67;100.00
56928;BME280;60850;52.502;13.426;2022-08-19T11:17:54;100541.00;;;25.72;100.00
56928;BME280;60850;52.502;13.426;2022-08-19T11:20:21;100543.84;;;25.70;100.00
56928;BME280;60850;52.502;13.426;2022-08-19T11:22:51;100547.13;;;25.64;100.00
56928;BME280;60850;52.502;13.426;2022-08-19T11:25:20;100552.75;;;25.53;100.00
56928;BME280;60850;52.502;13.426;2022-08-19T11:27:47;100556.75;;;25.49;100.00
56928;BME280;60850;52.502;13.426;2022-08-19T11:30:16;100545.28;;;25.55;100.00
56928;BME280;60850;52.502;13.426;2022-08-19T11:32:43;100541.72;;;25.74;100.00
56928;BME280;60850;52.502;13.426;2022-08-19T11:35:10;100547.19;;;25.84;100.00
56928;BME280;60850;52.502;13.426;2022-08-19T11:37:37;100551.66;;;25.94;100.00
56928;BME280;60850;52.502;13.426;2022-08-19T11:40:06;100551.66;;;26.04;100.00
56928;BME280;60850;52.502;13.426;2022-08-19T11:42:34;100546.75;;;26.08;100.00
56928;BME280;60850;52.502;13.426;2022-08-19T11:45:19;100550.22;;;26.10;100.00
56928;BME280;60850;52.502;13.426;2022-08-19T11:47:46;100551.94;;;26.11;100.00
56928;BME280;60850;52.502;13.426;2022-08-19T11:50:13;100557.69;;;26.08;100.00
56928;BME280;60850;52.502;13.426;2022-08-19T11:52:40;100554.78;;;25.99;100.00
56928;BME280;60850;52.502;13.426;2022-08-19T11:55:09;100555.66;;;26.00;100.00
56928;BME280;60850;52.502;13.426;2022-08-19T11:57:37;100557.13;;;25.94;100.00
56928;BME280;60850;52.502;13.426;2022-08-19T12:00:07;100573.94;;;25.90;100.00
56928;BME280;60850;52.502;13.426;2022-08-19T12:02:35;100569.91;;;25.74;100.00
56928;BME280;60850;52.502;13.426;2022-08-19T12:05:03;100572.56;;;25.65;100.00
56928;BME280;60850;52.502;13.426;2022-08-19T12:07:31;100585.34;;;25.55;100.00
56928;BME280;60850;52.502;13.426;2022-08-19T12:09:59;100584.03;;;25.49;100.00
56928;BME280;60850;52.502;13.426;2022-08-19T12:12:26;100580.59;;;25.47;100.00
56928;BME280;60850;52.502;13.426;2022-08-19T12:14:55;100578.63;;;25.59;100.00
56928;BME280;60850;52.502;13.426;2022-08-19T12:17:24;100587.88;;;25.87;100.00
56928;BME280;60850;52.502;13.426;2022-08-19T12:19:52;100592.75;;;26.12;100.00
56928;BME280;60850;52.502;13.426;2022-08-19T12:22:19;100578.97;;;26.23;100.00
56928;BME280;60850;52.502;13.426;2022-08-19T12:24:47;100582.69;;;26.42;100.00
56928;BME280;60850;52.502;13.426;2022-08-19T12:27:16;100581.63;;;26.62;100.00
56928;BME280;60850;52.502;13.426;2022-08-19T12:29:43;100585.81;;;26.66;100.00
56928;BME280;60850;52.502;13.426;2022-08-19T12:32:11;100583.78;;;26.68;100.00
56928;BME280;60850;52.502;13.426;2022-08-19T12:34:39;100586.19;;;26.81;100.00
56928;BME280;60850;52.502;13.426;2022-08-19T12:37:06;100582.41;;;26.92;100.00
56928;BME280;60850;52.502;13.426;2022-08-19T12:39:35;100582.53;;;27.00;100.00
56928;BME280;60850;52.502;13.426;2022-08-19T12:42:03;100585.28;;;27.00;100.00